Time;durP1;ratioP1;P1;durP2;ratioP2;P2;SDS_P1;SDS_P2;PMS_P1;PMS_P2;Temp;Humidity;BMP_temperature;BMP_pressure;BME280_temperature;BME280_humidity;BME280_pressure;Samples;Min_cycle;Max_cycle;Signal;HPM_P1;HPM_P2
2021/08/23 00:02:09;;;;;;;30.25;26.92;;;;;;;;;;5033051;28;20407;-83
2021/08/23 00:04:35;;;;;;;29.47;25.70;;;;;;;;;;5051641;28;20380;-81
2021/08/23 00:07:01;;;;;;;30.45;26.42;;;;;;;;;;5051154;28;20425;-84
2021/08/23 00:09:28;;;;;;;30.77;27.48;;;;;;;;;;5032836;28;20471;-84
2021/08/23 00:11:54;;;;;;;29.98;26.27;;;;;;;;;;5050524;28;20371;-84
2021/08/23 00:14:20;;;;;;;30.30;27.02;;;;;;;;;;5033495;28;20408;-80
2021/08/23 00:16:46;;;;;;;30.05;26.85;;;;;;;;;;5032611;28;20405;-81
2021/08/23 00:19:12;;;;;;;32.25;27.05;;;;;;;;;;5050196;28;20376;-82
2021/08/23 00:21:42;;;;;;;32.53;28.30;;;;;;;;;;5050923;28;20364;-83
2021/08/23 00:24:24;;;;;;;34.30;28.95;;;;;;;;;;5032783;28;20734;-82
2021/08/23 00:26:51;;;;;;;31.52;28.23;;;;;;;;;;5032855;28;20414;-83
2021/08/23 00:29:17;;;;;;;32.28;28.85;;;;;;;;;;5049955;28;20503;-82
2021/08/23 00:31:44;;;;;;;30.80;27.48;;;;;;;;;;5033132;28;20372;-82
2021/08/23 00:34:10;;;;;;;33.25;28.40;;;;;;;;;;5050293;28;20875;-83
2021/08/23 00:36:36;;;;;;;31.42;27.85;;;;;;;;;;5033053;28;20371;-81
2021/08/23 00:39:03;;;;;;;31.33;27.88;;;;;;;;;;5050124;28;20455;-81
2021/08/23 00:41:31;;;;;;;31.52;27.95;;;;;;;;;;5050928;28;20478;-79
2021/08/23 00:43:57;;;;;;;32.03;27.33;;;;;;;;;;5033069;28;20380;-82
2021/08/23 00:46:23;;;;;;;27.47;24.43;;;;;;;;;;5051758;28;20437;-83
2021/08/23 00:48:50;;;;;;;28.40;25.38;;;;;;;;;;5032320;28;20850;-82
2021/08/23 00:51:16;;;;;;;30.20;25.70;;;;;;;;;;5032418;28;20368;-81
2021/08/23 00:53:42;;;;;;;30.38;26.85;;;;;;;;;;5049825;28;20425;-82
2021/08/23 00:56:08;;;;;;;32.08;27.35;;;;;;;;;;5049888;28;20845;-83
2021/08/23 00:58:34;;;;;;;30.10;26.83;;;;;;;;;;5032096;28;20384;-82
2021/08/23 01:01:07;;;;;;;30.37;27.17;;;;;;;;;;5050208;28;20372;-82
2021/08/23 01:03:38;;;;;;;34.45;29.48;;;;;;;;;;5050382;28;20398;-82
2021/08/23 01:06:06;;;;;;;33.45;28.63;;;;;;;;;;5050289;28;21033;-85
2021/08/23 01:08:37;;;;;;;32.55;29.05;;;;;;;;;;5049931;28;20390;-84
2021/08/23 01:11:05;;;;;;;33.43;29.80;;;;;;;;;;5032724;28;20368;-81
2021/08/23 01:13:31;;;;;;;38.42;30.33;;;;;;;;;;5050071;28;20462;-82
2021/08/23 01:15:57;;;;;;;33.85;30.13;;;;;;;;;;5050020;28;20375;-83
2021/08/23 01:18:23;;;;;;;31.42;28.13;;;;;;;;;;5049375;28;20368;-85
2021/08/23 01:20:50;;;;;;;28.30;25.50;;;;;;;;;;5050247;28;20744;-83
2021/08/23 01:23:16;;;;;;;29.88;26.67;;;;;;;;;;5050561;28;20367;-82
2021/08/23 01:25:44;;;;;;;29.35;26.25;;;;;;;;;;5050873;28;20459;-79
2021/08/23 01:28:15;;;;;;;27.88;24.25;;;;;;;;;;5050781;28;20379;-79
2021/08/23 01:30:44;;;;;;;24.90;22.40;;;;;;;;;;5050148;28;20364;-80
2021/08/23 01:33:10;;;;;;;25.60;22.95;;;;;;;;;;5032193;28;20400;-81
2021/08/23 01:35:37;;;;;;;25.20;22.70;;;;;;;;;;5050194;28;20385;-83
2021/08/23 01:38:03;;;;;;;22.52;20.42;;;;;;;;;;5050701;28;20376;-81
2021/08/23 01:40:29;;;;;;;21.48;19.38;;;;;;;;;;5031267;28;20473;-82
2021/08/23 01:42:55;;;;;;;21.08;18.98;;;;;;;;;;5032614;28;20380;-81
2021/08/23 01:45:21;;;;;;;20.88;18.77;;;;;;;;;;5050048;28;20372;-83
2021/08/23 01:47:47;;;;;;;20.65;18.55;;;;;;;;;;5050213;28;20891;-83
2021/08/23 01:50:13;;;;;;;20.58;18.38;;;;;;;;;;5048782;28;20390;-82
2021/08/23 01:52:39;;;;;;;21.00;18.90;;;;;;;;;;5049790;28;20402;-84
2021/08/23 01:55:05;;;;;;;21.43;19.27;;;;;;;;;;5050321;28;20805;-82
2021/08/23 01:57:31;;;;;;;23.92;21.20;;;;;;;;;;5049604;28;20470;-83
2021/08/23 01:59:57;;;;;;;23.70;21.30;;;;;;;;;;5048781;28;20451;-82
2021/08/23 02:02:23;;;;;;;22.17;19.93;;;;;;;;;;5048944;28;20807;-82
2021/08/23 02:04:49;;;;;;;22.58;19.60;;;;;;;;;;5048927;28;20374;-82
2021/08/23 02:07:15;;;;;;;21.67;19.40;;;;;;;;;;5031681;28;20411;-80
2021/08/23 02:09:41;;;;;;;22.35;20.05;;;;;;;;;;5049543;28;20745;-80
2021/08/23 02:12:07;;;;;;;21.95;19.75;;;;;;;;;;5049072;28;20371;-82
2021/08/23 02:14:33;;;;;;;22.48;20.08;;;;;;;;;;5032077;28;20463;-83
2021/08/23 02:16:59;;;;;;;27.20;22.60;;;;;;;;;;5049692;28;20873;-81
2021/08/23 02:19:25;;;;;;;27.38;23.27;;;;;;;;;;5049692;28;20372;-82
2021/08/23 02:21:52;;;;;;;24.52;21.73;;;;;;;;;;5049838;28;20372;-82
2021/08/23 02:24:18;;;;;;;26.85;22.38;;;;;;;;;;5049590;28;20379;-86
2021/08/23 02:26:44;;;;;;;22.15;19.73;;;;;;;;;;5031364;28;20399;-84
2021/08/23 02:29:11;;;;;;;23.83;20.33;;;;;;;;;;5049222;28;20445;-82
2021/08/23 02:31:37;;;;;;;19.23;17.02;;;;;;;;;;5049472;28;20372;-83
2021/08/23 02:34:03;;;;;;;19.83;17.65;;;;;;;;;;5048682;28;20395;-80
2021/08/23 02:36:29;;;;;;;19.55;15.60;;;;;;;;;;5048921;28;20739;-83
2021/08/23 02:38:55;;;;;;;19.65;16.13;;;;;;;;;;5048540;28;20363;-81
2021/08/23 02:41:21;;;;;;;16.75;14.43;;;;;;;;;;5048753;28;20979;-83
2021/08/23 02:43:48;;;;;;;16.47;14.77;;;;;;;;;;5031214;28;20466;-83
2021/08/23 02:46:14;;;;;;;15.93;14.32;;;;;;;;;;5049119;28;21159;-81
2021/08/23 02:48:40;;;;;;;17.60;15.63;;;;;;;;;;5031602;28;20431;-84
2021/08/23 02:51:06;;;;;;;17.33;15.52;;;;;;;;;;5033267;28;20391;-83
2021/08/23 02:53:32;;;;;;;18.92;16.67;;;;;;;;;;5051712;28;20904;-80
2021/08/23 02:55:58;;;;;;;18.65;16.75;;;;;;;;;;5050310;28;20372;-83
2021/08/23 02:58:24;;;;;;;19.92;17.83;;;;;;;;;;5031161;28;20816;-83
2021/08/23 03:00:50;;;;;;;23.07;18.70;;;;;;;;;;5049700;28;20513;-82
2021/08/23 03:03:16;;;;;;;20.77;18.70;;;;;;;;;;5053495;28;20869;-81
2021/08/23 03:05:42;;;;;;;21.67;19.58;;;;;;;;;;5053307;28;20364;-81
2021/08/23 03:08:08;;;;;;;20.63;18.63;;;;;;;;;;5053578;28;20437;-83
2021/08/23 03:10:34;;;;;;;23.23;20.83;;;;;;;;;;5035571;28;20892;-83
2021/08/23 03:13:00;;;;;;;22.07;19.77;;;;;;;;;;5053457;28;20418;-83
2021/08/23 03:15:26;;;;;;;22.33;19.97;;;;;;;;;;5035795;28;20812;-82
2021/08/23 03:17:52;;;;;;;21.30;19.20;;;;;;;;;;5052885;28;20391;-83
2021/08/23 03:20:18;;;;;;;19.30;17.23;;;;;;;;;;5033972;28;20471;-83
2021/08/23 03:22:44;;;;;;;20.88;18.67;;;;;;;;;;5052470;28;20371;-84
2021/08/23 03:25:10;;;;;;;19.25;17.30;;;;;;;;;;5035191;28;20372;-83
2021/08/23 03:27:36;;;;;;;19.52;17.52;;;;;;;;;;5053000;28;20380;-82
2021/08/23 03:30:03;;;;;;;19.70;17.55;;;;;;;;;;5033961;28;20467;-80
2021/08/23 03:32:29;;;;;;;19.50;17.52;;;;;;;;;;5034879;28;20380;-81
2021/08/23 03:34:55;;;;;;;19.00;17.10;;;;;;;;;;5052406;28;20386;-81
2021/08/23 03:37:21;;;;;;;19.77;17.73;;;;;;;;;;5034765;28;20407;-79
2021/08/23 03:39:47;;;;;;;21.63;18.97;;;;;;;;;;5051967;28;20853;-84
2021/08/23 03:42:12;;;;;;;19.10;17.20;;;;;;;;;;5035076;28;20446;-81
2021/08/23 03:44:38;;;;;;;19.92;17.38;;;;;;;;;;5034712;28;20441;-83
2021/08/23 03:47:04;;;;;;;18.95;16.92;;;;;;;;;;5034620;28;20475;-81
2021/08/23 03:49:30;;;;;;;20.38;18.13;;;;;;;;;;5035070;28;20707;-81
2021/08/23 03:51:56;;;;;;;18.95;17.00;;;;;;;;;;5034325;28;20421;-81
2021/08/23 03:54:22;;;;;;;19.10;17.05;;;;;;;;;;5051747;28;20399;-83
2021/08/23 03:56:48;;;;;;;19.10;17.10;;;;;;;;;;5052502;28;20380;-83
2021/08/23 03:59:14;;;;;;;19.17;16.83;;;;;;;;;;5051657;28;20376;-83
2021/08/23 04:01:40;;;;;;;21.27;17.90;;;;;;;;;;5051829;28;20395;-84
2021/08/23 04:04:06;;;;;;;20.10;17.33;;;;;;;;;;5052065;28;20375;-81
2021/08/23 04:06:32;;;;;;;18.38;16.40;;;;;;;;;;5051969;28;20364;-82
2021/08/23 04:08:58;;;;;;;18.90;15.75;;;;;;;;;;5050820;28;20858;-81
2021/08/23 04:11:24;;;;;;;17.90;16.00;;;;;;;;;;5051656;28;20383;-84
2021/08/23 04:13:50;;;;;;;18.92;16.00;;;;;;;;;;5051155;28;20399;-82
2021/08/23 04:16:18;;;;;;;16.67;14.63;;;;;;;;;;5052952;28;20372;-84
2021/08/23 04:18:44;;;;;;;16.17;13.32;;;;;;;;;;5051144;28;20386;-82
2021/08/23 04:21:10;;;;;;;16.38;14.68;;;;;;;;;;5033317;28;20451;-81
2021/08/23 04:23:37;;;;;;;15.70;13.25;;;;;;;;;;5052848;28;20459;-80
2021/08/23 04:26:03;;;;;;;15.85;12.85;;;;;;;;;;5051893;28;20861;-81
2021/08/23 04:28:29;;;;;;;15.85;12.05;;;;;;;;;;5050759;28;20363;-80
2021/08/23 04:30:55;;;;;;;12.65;10.90;;;;;;;;;;5032966;28;20397;-82
2021/08/23 04:33:22;;;;;;;13.00;10.30;;;;;;;;;;5050431;28;20411;-83
2021/08/23 04:35:48;;;;;;;11.60;10.32;;;;;;;;;;5050235;28;20418;-80
2021/08/23 04:38:14;;;;;;;10.88;9.77;;;;;;;;;;5039421;28;20788;-82
2021/08/23 04:40:40;;;;;;;13.23;9.35;;;;;;;;;;5049536;28;20958;-80
2021/08/23 04:43:07;;;;;;;12.48;9.52;;;;;;;;;;5050659;28;20416;-81
2021/08/23 04:45:33;;;;;;;11.00;8.82;;;;;;;;;;5050841;28;20459;-83
2021/08/23 04:47:59;;;;;;;11.88;9.52;;;;;;;;;;5052076;28;20399;-82
2021/08/23 04:50:32;;;;;;;12.33;9.13;;;;;;;;;;5032295;28;22175;-80
2021/08/23 04:52:58;;;;;;;11.00;8.93;;;;;;;;;;5032603;28;20416;-81
2021/08/23 04:55:25;;;;;;;10.73;9.15;;;;;;;;;;5051377;28;20394;-80
2021/08/23 04:57:53;;;;;;;10.60;9.10;;;;;;;;;;5054016;28;20392;-80
2021/08/23 05:00:21;;;;;;;12.63;9.07;;;;;;;;;;5034480;28;20456;-80
2021/08/23 05:02:47;;;;;;;10.77;8.75;;;;;;;;;;5034360;28;20383;-80
2021/08/23 05:05:13;;;;;;;10.13;8.75;;;;;;;;;;5032712;28;20390;-84
2021/08/23 05:07:39;;;;;;;9.60;8.60;;;;;;;;;;5050124;28;20451;-81
2021/08/23 05:10:06;;;;;;;11.38;8.20;;;;;;;;;;5049793;28;20376;-80
2021/08/23 05:12:32;;;;;;;10.30;9.10;;;;;;;;;;5030578;28;20411;-81
2021/08/23 05:14:58;;;;;;;8.98;8.10;;;;;;;;;;5050722;28;20838;-80
2021/08/23 05:17:25;;;;;;;9.52;8.20;;;;;;;;;;5031248;28;20406;-84
2021/08/23 05:19:52;;;;;;;10.45;7.63;;;;;;;;;;5048200;28;20376;-80
2021/08/23 05:22:18;;;;;;;9.15;8.05;;;;;;;;;;5049601;28;20710;-80
2021/08/23 05:24:44;;;;;;;10.63;8.57;;;;;;;;;;5049224;28;20364;-80
2021/08/23 05:27:10;;;;;;;12.35;8.60;;;;;;;;;;5050254;28;20384;-81
2021/08/23 05:29:36;;;;;;;8.95;8.05;;;;;;;;;;5030413;28;20874;-84
2021/08/23 05:32:02;;;;;;;8.43;7.53;;;;;;;;;;5049403;28;20427;-83
2021/08/23 05:34:28;;;;;;;8.25;7.38;;;;;;;;;;5048990;28;20454;-82
2021/08/23 05:36:54;;;;;;;9.50;7.10;;;;;;;;;;5049490;28;20777;-79
2021/08/23 05:39:22;;;;;;;7.40;6.70;;;;;;;;;;5049198;28;20865;-78
2021/08/23 05:41:48;;;;;;;9.95;7.22;;;;;;;;;;5048509;28;20386;-82
2021/08/23 05:44:14;;;;;;;7.35;6.55;;;;;;;;;;5048690;28;20477;-85
2021/08/23 05:46:40;;;;;;;12.55;7.22;;;;;;;;;;5028310;28;20964;-82
2021/08/23 05:49:06;;;;;;;7.90;7.03;;;;;;;;;;5048751;28;20383;-82
2021/08/23 05:51:32;;;;;;;7.75;6.60;;;;;;;;;;5047922;28;20432;-83
2021/08/23 05:53:58;;;;;;;6.72;6.03;;;;;;;;;;5049221;28;20442;-80
2021/08/23 05:56:24;;;;;;;6.60;5.90;;;;;;;;;;5050303;28;20404;-81
2021/08/23 05:58:50;;;;;;;9.43;6.55;;;;;;;;;;5051207;28;20376;-84
2021/08/23 06:01:16;;;;;;;6.82;6.05;;;;;;;;;;5049484;28;20409;-82
2021/08/23 06:03:42;;;;;;;8.60;6.18;;;;;;;;;;5051448;28;20403;-81
2021/08/23 06:06:08;;;;;;;7.18;6.10;;;;;;;;;;5050005;28;20457;-79
2021/08/23 06:08:35;;;;;;;9.48;5.80;;;;;;;;;;5049571;28;20356;-79
2021/08/23 06:11:04;;;;;;;8.50;6.15;;;;;;;;;;5031961;28;20415;-82
2021/08/23 06:13:30;;;;;;;6.40;5.50;;;;;;;;;;5048681;28;21020;-83
2021/08/23 06:15:58;;;;;;;6.65;6.00;;;;;;;;;;5032020;28;20456;-84
2021/08/23 06:18:24;;;;;;;7.18;5.38;;;;;;;;;;5049030;28;20430;-84
2021/08/23 06:20:50;;;;;;;5.97;5.38;;;;;;;;;;5048961;28;20406;-80
2021/08/23 06:23:16;;;;;;;9.98;6.13;;;;;;;;;;5030424;28;20652;-79
2021/08/23 06:25:42;;;;;;;9.18;5.75;;;;;;;;;;5048264;28;20371;-82
2021/08/23 06:28:08;;;;;;;6.78;5.80;;;;;;;;;;5048307;28;20746;-83
2021/08/23 06:30:34;;;;;;;7.90;6.15;;;;;;;;;;5047742;28;20841;-83
2021/08/23 06:33:00;;;;;;;8.10;6.45;;;;;;;;;;5048318;28;20395;-82
2021/08/23 06:35:26;;;;;;;8.30;6.03;;;;;;;;;;5049717;28;20905;-82
2021/08/23 06:37:52;;;;;;;9.02;5.97;;;;;;;;;;5052595;28;20367;-80
2021/08/23 06:40:18;;;;;;;7.70;5.80;;;;;;;;;;5050490;28;20398;-82
2021/08/23 06:42:44;;;;;;;8.73;6.28;;;;;;;;;;5049935;28;20368;-82
2021/08/23 06:45:10;;;;;;;10.52;6.85;;;;;;;;;;5032269;28;20445;-83
2021/08/23 06:47:36;;;;;;;7.22;6.03;;;;;;;;;;5032795;28;20474;-84
2021/08/23 06:50:03;;;;;;;6.47;5.88;;;;;;;;;;5049826;28;20469;-84
2021/08/23 06:52:29;;;;;;;7.55;5.78;;;;;;;;;;5049593;28;20386;-83
2021/08/23 06:54:55;;;;;;;6.75;5.65;;;;;;;;;;5050571;28;20371;-81
2021/08/23 06:57:21;;;;;;;8.20;6.32;;;;;;;;;;5051851;28;20374;-81
2021/08/23 06:59:47;;;;;;;7.22;5.85;;;;;;;;;;5051701;28;20734;-83
2021/08/23 07:02:13;;;;;;;7.07;5.93;;;;;;;;;;5051193;28;20458;-81
2021/08/23 07:04:39;;;;;;;7.43;5.80;;;;;;;;;;5050063;28;20376;-80
2021/08/23 07:07:05;;;;;;;7.90;5.65;;;;;;;;;;5049847;28;20372;-80
2021/08/23 07:09:31;;;;;;;9.45;6.13;;;;;;;;;;5051247;28;20370;-81
2021/08/23 07:11:58;;;;;;;6.10;5.30;;;;;;;;;;5048846;28;20411;-80
2021/08/23 07:14:24;;;;;;;8.73;5.93;;;;;;;;;;5032858;28;20422;-83
2021/08/23 07:16:50;;;;;;;7.68;5.63;;;;;;;;;;5032283;28;20474;-81
2021/08/23 07:19:16;;;;;;;5.90;5.33;;;;;;;;;;5051215;28;20367;-81
2021/08/23 07:21:42;;;;;;;7.80;5.70;;;;;;;;;;5033036;28;20367;-84
2021/08/23 07:24:10;;;;;;;6.53;5.10;;;;;;;;;;5032386;28;20455;-87
2021/08/23 07:26:36;;;;;;;5.68;5.15;;;;;;;;;;5027494;28;20415;-82
2021/08/23 07:29:02;;;;;;;5.93;5.15;;;;;;;;;;5049078;28;20852;-82
2021/08/23 07:31:28;;;;;;;8.57;5.13;;;;;;;;;;5051754;28;20917;-81
2021/08/23 07:33:54;;;;;;;7.85;4.80;;;;;;;;;;5033203;28;20404;-82
2021/08/23 07:36:20;;;;;;;6.95;5.30;;;;;;;;;;5051492;28;20368;-84
2021/08/23 07:38:46;;;;;;;7.90;5.10;;;;;;;;;;5033492;28;20402;-82
2021/08/23 07:41:12;;;;;;;7.28;4.90;;;;;;;;;;5051472;28;20380;-81
2021/08/23 07:43:39;;;;;;;6.40;4.80;;;;;;;;;;5051357;28;20371;-80
2021/08/23 07:46:06;;;;;;;7.75;4.75;;;;;;;;;;5033530;28;20778;-82
2021/08/23 07:48:32;;;;;;;7.35;4.97;;;;;;;;;;5050021;28;20383;-82
2021/08/23 07:50:58;;;;;;;7.50;5.03;;;;;;;;;;5051256;28;20448;-85
2021/08/23 07:53:24;;;;;;;4.97;4.43;;;;;;;;;;5051134;28;20402;-83
2021/08/23 07:55:50;;;;;;;6.18;4.32;;;;;;;;;;5032906;28;20387;-84
2021/08/23 07:58:16;;;;;;;6.45;3.88;;;;;;;;;;5050926;28;20397;-84
2021/08/23 08:00:42;;;;;;;5.90;3.90;;;;;;;;;;5050815;28;20367;-81
2021/08/23 08:03:08;;;;;;;7.93;4.10;;;;;;;;;;5050590;28;20391;-84
2021/08/23 08:05:37;;;;;;;7.35;4.13;;;;;;;;;;5051115;28;20932;-81
2021/08/23 08:08:06;;;;;;;7.60;4.03;;;;;;;;;;5050814;28;20407;-84
2021/08/23 08:10:32;;;;;;;4.95;4.00;;;;;;;;;;5050802;28;20379;-82
2021/08/23 08:12:58;;;;;;;6.23;3.50;;;;;;;;;;5050600;28;20403;-81
2021/08/23 08:15:24;;;;;;;6.97;3.70;;;;;;;;;;5050525;28;20372;-81
2021/08/23 08:17:50;;;;;;;6.55;3.90;;;;;;;;;;5032371;28;20750;-85
2021/08/23 08:20:16;;;;;;;8.48;3.72;;;;;;;;;;5032509;28;20391;-81
2021/08/23 08:22:44;;;;;;;5.50;3.50;;;;;;;;;;5034959;28;20395;-83
2021/08/23 08:25:10;;;;;;;7.82;3.92;;;;;;;;;;5050576;28;20371;-85
2021/08/23 08:27:36;;;;;;;6.15;3.45;;;;;;;;;;5050724;28;20426;-80
2021/08/23 08:30:03;;;;;;;5.68;3.67;;;;;;;;;;5050667;28;20486;-81
2021/08/23 08:32:29;;;;;;;5.70;3.38;;;;;;;;;;5032393;28;20430;-82
2021/08/23 08:34:55;;;;;;;4.53;3.08;;;;;;;;;;5050341;28;20787;-81
2021/08/23 08:37:21;;;;;;;5.30;3.67;;;;;;;;;;5050078;28;20384;-81
2021/08/23 08:39:47;;;;;;;5.22;3.60;;;;;;;;;;5050302;28;20387;-81
2021/08/23 08:42:16;;;;;;;5.22;3.35;;;;;;;;;;5050775;28;20403;-83
2021/08/23 08:44:42;;;;;;;3.13;2.83;;;;;;;;;;5049950;28;20395;-81
2021/08/23 08:47:08;;;;;;;5.72;3.03;;;;;;;;;;5050163;28;20430;-82
2021/08/23 08:49:37;;;;;;;8.00;3.20;;;;;;;;;;5031956;28;20384;-82
2021/08/23 08:52:04;;;;;;;3.30;2.70;;;;;;;;;;5049816;28;20516;-81
2021/08/23 08:54:30;;;;;;;3.72;2.88;;;;;;;;;;5049866;28;20957;-81
2021/08/23 08:56:57;;;;;;;3.72;2.88;;;;;;;;;;5032304;28;20376;-83
2021/08/23 08:59:23;;;;;;;5.03;2.80;;;;;;;;;;5031790;28;20395;-81
2021/08/23 09:01:49;;;;;;;3.55;2.70;;;;;;;;;;5049860;28;20390;-82
2021/08/23 09:04:15;;;;;;;3.95;2.63;;;;;;;;;;5031532;28;20411;-82
2021/08/23 09:06:41;;;;;;;4.63;2.60;;;;;;;;;;5049845;28;20386;-81
2021/08/23 09:09:09;;;;;;;3.58;2.88;;;;;;;;;;5049376;28;20426;-81
2021/08/23 09:11:35;;;;;;;5.63;2.97;;;;;;;;;;5049658;28;21098;-82
2021/08/23 09:14:04;;;;;;;5.05;2.95;;;;;;;;;;5049313;28;20414;-81
2021/08/23 09:16:31;;;;;;;4.18;2.63;;;;;;;;;;5049159;28;20372;-85
2021/08/23 09:18:57;;;;;;;5.50;2.53;;;;;;;;;;5049457;28;20409;-83
2021/08/23 09:21:30;;;;;;;4.33;2.50;;;;;;;;;;5049512;28;20381;-82
2021/08/23 09:23:59;;;;;;;6.45;2.47;;;;;;;;;;5049310;28;20450;-85
2021/08/23 09:26:33;;;;;;;3.10;2.43;;;;;;;;;;5049389;28;20376;-82
2021/08/23 09:29:00;;;;;;;6.47;2.83;;;;;;;;;;5049249;28;20376;-86
2021/08/23 09:31:27;;;;;;;4.57;2.50;;;;;;;;;;5049424;28;20388;-84
2021/08/23 09:33:56;;;;;;;6.30;2.58;;;;;;;;;;5049414;28;20407;-84
2021/08/23 09:36:22;;;;;;;5.05;2.53;;;;;;;;;;5049180;28;20369;-83
2021/08/23 09:38:59;;;;;;;4.65;2.50;;;;;;;;;;5049111;28;20737;-82
2021/08/23 09:41:25;;;;;;;3.03;2.30;;;;;;;;;;5049060;28;20453;-82
2021/08/23 09:44:00;;;;;;;4.30;2.60;;;;;;;;;;5030889;28;20471;-83
2021/08/23 09:46:26;;;;;;;4.13;2.20;;;;;;;;;;5048826;28;20372;-87
2021/08/23 09:48:53;;;;;;;6.00;2.42;;;;;;;;;;5028594;28;20462;-83
2021/08/23 09:51:29;;;;;;;5.65;2.13;;;;;;;;;;5048372;28;20842;-82
2021/08/23 09:54:09;;;;;;;3.28;2.25;;;;;;;;;;5048214;28;20417;-82
2021/08/23 09:56:39;;;;;;;4.17;2.13;;;;;;;;;;5048889;28;20380;-80
2021/08/23 09:59:05;;;;;;;5.03;2.30;;;;;;;;;;5048732;28;20884;-80
2021/08/23 10:01:33;;;;;;;3.42;2.55;;;;;;;;;;5048564;28;20386;-82
2021/08/23 10:04:06;;;;;;;4.90;2.35;;;;;;;;;;5048341;28;21030;-83
2021/08/23 10:06:37;;;;;;;2.90;2.27;;;;;;;;;;5048365;28;20411;-84
2021/08/23 10:09:03;;;;;;;4.63;2.42;;;;;;;;;;5048365;28;20375;-83
2021/08/23 10:11:31;;;;;;;4.75;2.38;;;;;;;;;;5030092;28;20412;-81
2021/08/23 10:13:58;;;;;;;5.03;2.20;;;;;;;;;;5048371;28;20465;-81
2021/08/23 10:16:24;;;;;;;3.05;2.00;;;;;;;;;;5048005;28;20415;-81
2021/08/23 10:18:50;;;;;;;4.53;2.17;;;;;;;;;;5030455;28;20418;-78
2021/08/23 10:21:17;;;;;;;3.75;2.20;;;;;;;;;;5050610;28;20802;-82
2021/08/23 10:23:43;;;;;;;5.10;2.70;;;;;;;;;;5049025;28;20454;-85
2021/08/23 10:26:10;;;;;;;3.67;2.25;;;;;;;;;;5049676;28;20404;-81
2021/08/23 10:28:37;;;;;;;3.38;2.35;;;;;;;;;;5049711;28;20434;-82
2021/08/23 10:31:06;;;;;;;2.42;1.88;;;;;;;;;;5048320;28;20495;-80
2021/08/23 10:33:36;;;;;;;3.38;2.40;;;;;;;;;;5029858;28;20770;-80
2021/08/23 10:36:02;;;;;;;2.53;2.20;;;;;;;;;;5048447;28;20399;-84
2021/08/23 10:38:28;;;;;;;5.13;2.10;;;;;;;;;;5047827;28;20372;-84
2021/08/23 10:41:08;;;;;;;4.20;2.42;;;;;;;;;;5030138;28;20376;-78
2021/08/23 10:43:53;;;;;;;5.82;2.45;;;;;;;;;;5047902;28;20467;-83
2021/08/23 10:46:23;;;;;;;4.13;2.20;;;;;;;;;;5029940;28;20857;-82
2021/08/23 10:48:50;;;;;;;4.88;2.10;;;;;;;;;;5047880;28;20466;-84
2021/08/23 10:51:46;;;;;;;4.15;2.22;;;;;;;;;;5030311;28;20853;-81
2021/08/23 10:54:23;;;;;;;4.95;2.20;;;;;;;;;;5012905;28;20477;-83
2021/08/23 10:57:08;;;;;;;3.40;2.30;;;;;;;;;;5048201;28;20850;-82
2021/08/23 10:59:37;;;;;;;3.55;2.33;;;;;;;;;;5047918;28;20374;-82
2021/08/23 11:02:03;;;;;;;8.90;2.53;;;;;;;;;;5047741;28;20380;-84
2021/08/23 11:04:56;;;;;;;3.13;2.33;;;;;;;;;;5030034;28;20383;-80
2021/08/23 11:07:26;;;;;;;5.82;2.28;;;;;;;;;;5044466;28;20418;-81
2021/08/23 11:10:01;;;;;;;3.60;2.60;;;;;;;;;;5029965;28;20375;-82
2021/08/23 11:12:27;;;;;;;5.28;2.33;;;;;;;;;;5048038;28;20850;-81
2021/08/23 11:14:55;;;;;;;3.20;2.30;;;;;;;;;;5047482;28;20395;-80
2021/08/23 11:17:27;;;;;;;3.90;2.60;;;;;;;;;;5029974;28;20384;-83
2021/08/23 11:19:53;;;;;;;6.45;2.42;;;;;;;;;;5047749;28;20383;-84
2021/08/23 11:22:19;;;;;;;3.57;2.50;;;;;;;;;;5030759;28;20376;-80
2021/08/23 11:24:45;;;;;;;5.07;2.35;;;;;;;;;;5033271;28;20791;-84
2021/08/23 11:27:14;;;;;;;4.60;2.00;;;;;;;;;;5051417;28;20948;-82
2021/08/23 11:29:47;;;;;;;3.22;2.17;;;;;;;;;;5051213;28;20494;-81
2021/08/23 11:32:13;;;;;;;3.73;2.13;;;;;;;;;;5051601;28;20402;-84
2021/08/23 11:34:39;;;;;;;3.95;2.45;;;;;;;;;;5051383;28;20820;-83
2021/08/23 11:37:07;;;;;;;4.35;2.55;;;;;;;;;;5051227;28;20383;-85
2021/08/23 11:39:34;;;;;;;5.93;2.50;;;;;;;;;;5051166;28;20368;-81
2021/08/23 11:42:01;;;;;;;4.43;2.35;;;;;;;;;;5050903;28;20378;-80
2021/08/23 11:44:28;;;;;;;4.03;2.40;;;;;;;;;;5033258;28;20380;-84
2021/08/23 11:46:57;;;;;;;4.95;2.70;;;;;;;;;;5051207;28;20376;-82
2021/08/23 11:49:29;;;;;;;3.08;2.55;;;;;;;;;;5051163;28;20417;-80
2021/08/23 11:51:55;;;;;;;4.53;2.30;;;;;;;;;;5032922;28;20372;-82
2021/08/23 11:54:22;;;;;;;4.97;2.50;;;;;;;;;;5033506;28;20403;-83
2021/08/23 11:56:48;;;;;;;3.90;2.13;;;;;;;;;;5051480;28;20368;-80
2021/08/23 11:59:14;;;;;;;3.97;2.53;;;;;;;;;;5051143;28;20872;-82
2021/08/23 12:01:40;;;;;;;3.80;2.47;;;;;;;;;;5051183;28;20388;-82
2021/08/23 12:04:06;;;;;;;3.90;2.00;;;;;;;;;;5051023;28;20418;-82
2021/08/23 12:06:35;;;;;;;4.70;2.13;;;;;;;;;;5033065;28;20466;-82
2021/08/23 12:09:02;;;;;;;6.25;2.65;;;;;;;;;;5050968;28;20374;-83
2021/08/23 12:11:40;;;;;;;4.73;2.47;;;;;;;;;;5050924;28;20897;-82
2021/08/23 12:14:16;;;;;;;3.22;2.10;;;;;;;;;;5033025;28;20408;-85
2021/08/23 12:16:44;;;;;;;3.30;2.05;;;;;;;;;;5050943;28;20371;-82
2021/08/23 12:19:11;;;;;;;4.37;2.20;;;;;;;;;;5050905;28;20442;-80
2021/08/23 12:21:37;;;;;;;3.17;2.00;;;;;;;;;;5050589;28;20375;-80
2021/08/23 12:24:03;;;;;;;5.53;2.13;;;;;;;;;;5050844;28;20438;-81
2021/08/23 12:26:40;;;;;;;7.75;2.40;;;;;;;;;;5033056;28;20520;-83
2021/08/23 12:29:12;;;;;;;6.93;2.35;;;;;;;;;;5032650;28;20383;-82
2021/08/23 12:31:39;;;;;;;3.73;2.00;;;;;;;;;;5032678;28;20866;-81
2021/08/23 12:34:12;;;;;;;4.57;2.30;;;;;;;;;;5050035;28;20855;-81
2021/08/23 12:36:38;;;;;;;5.32;1.90;;;;;;;;;;5050629;28;20379;-80
2021/08/23 12:39:04;;;;;;;3.00;2.03;;;;;;;;;;5050516;28;20360;-84
2021/08/23 12:41:30;;;;;;;3.42;1.85;;;;;;;;;;5050699;28;20404;-84
2021/08/23 12:43:56;;;;;;;4.83;2.03;;;;;;;;;;5047691;28;20376;-82
2021/08/23 12:46:22;;;;;;;2.92;2.15;;;;;;;;;;5031554;28;20406;-83
2021/08/23 12:48:48;;;;;;;3.13;1.88;;;;;;;;;;5049982;28;20368;-84
2021/08/23 12:51:16;;;;;;;3.45;2.17;;;;;;;;;;5047177;28;20384;-81
2021/08/23 12:53:44;;;;;;;3.35;2.17;;;;;;;;;;5032005;28;20411;-80
2021/08/23 12:56:13;;;;;;;4.00;2.50;;;;;;;;;;5049788;28;20820;-86
2021/08/23 12:58:39;;;;;;;3.58;2.55;;;;;;;;;;5031905;28;20375;-83
2021/08/23 13:01:05;;;;;;;3.47;2.13;;;;;;;;;;5031529;28;20391;-80
2021/08/23 13:03:30;;;;;;;3.40;2.20;;;;;;;;;;5031495;28;20469;-82
2021/08/23 13:05:57;;;;;;;4.22;2.15;;;;;;;;;;5028198;28;20388;-82
2021/08/23 13:08:23;;;;;;;4.38;2.42;;;;;;;;;;5028592;28;20391;-83
2021/08/23 13:10:49;;;;;;;3.78;2.47;;;;;;;;;;5029280;28;20739;-84
2021/08/23 13:13:16;;;;;;;3.03;2.00;;;;;;;;;;5029158;28;20401;-82
2021/08/23 13:15:43;;;;;;;4.30;2.28;;;;;;;;;;5026922;28;20742;-87
2021/08/23 13:18:09;;;;;;;7.90;2.30;;;;;;;;;;5009986;28;20377;-84
2021/08/23 13:20:36;;;;;;;5.23;2.53;;;;;;;;;;5009946;28;20376;-85
2021/08/23 13:23:02;;;;;;;7.18;2.67;;;;;;;;;;5010549;28;20940;-83
2021/08/23 13:25:28;;;;;;;4.40;2.50;;;;;;;;;;5010343;28;21188;-81
2021/08/23 13:27:54;;;;;;;4.97;2.38;;;;;;;;;;5027755;28;20385;-83
2021/08/23 13:30:20;;;;;;;7.43;2.70;;;;;;;;;;5026261;28;20378;-85
2021/08/23 13:32:47;;;;;;;6.40;2.50;;;;;;;;;;5027509;28;20373;-83
2021/08/23 13:35:12;;;;;;;8.02;2.88;;;;;;;;;;5028359;28;20778;-83
2021/08/23 13:37:38;;;;;;;6.60;2.80;;;;;;;;;;5027196;28;20384;-82
2021/08/23 13:40:06;;;;;;;5.90;2.50;;;;;;;;;;5009632;28;20740;-79
2021/08/23 13:42:32;;;;;;;4.15;2.60;;;;;;;;;;5027244;28;20435;-80
2021/08/23 13:44:58;;;;;;;5.57;2.70;;;;;;;;;;5026817;28;20374;-82
2021/08/23 13:47:24;;;;;;;5.15;2.78;;;;;;;;;;5027387;28;20437;-81
2021/08/23 13:49:51;;;;;;;7.87;2.93;;;;;;;;;;5028399;28;20378;-81
2021/08/23 13:52:17;;;;;;;6.22;2.83;;;;;;;;;;5009914;28;20455;-82
2021/08/23 13:54:43;;;;;;;6.53;2.50;;;;;;;;;;5027079;28;20413;-84
2021/08/23 13:57:08;;;;;;;4.72;2.70;;;;;;;;;;5027096;28;20386;-80
2021/08/23 13:59:35;;;;;;;5.28;2.92;;;;;;;;;;5025593;28;20459;-82
2021/08/23 14:02:01;;;;;;;6.22;3.30;;;;;;;;;;5026971;28;20405;-81
2021/08/23 14:04:31;;;;;;;6.70;2.80;;;;;;;;;;5027379;28;20386;-82
2021/08/23 14:06:59;;;;;;;5.50;2.87;;;;;;;;;;5027567;28;20512;-84
2021/08/23 14:09:25;;;;;;;4.88;2.67;;;;;;;;;;5026706;28;20947;-82
2021/08/23 14:11:51;;;;;;;6.07;3.03;;;;;;;;;;5028003;28;20408;-81
2021/08/23 14:14:17;;;;;;;6.88;3.08;;;;;;;;;;5010114;28;20444;-81
2021/08/23 14:16:44;;;;;;;5.68;2.90;;;;;;;;;;5010671;28;20406;-82
2021/08/23 14:19:10;;;;;;;5.45;2.70;;;;;;;;;;5010539;28;20381;-82
2021/08/23 14:21:36;;;;;;;6.47;2.90;;;;;;;;;;5028754;28;20380;-83
2021/08/23 14:24:03;;;;;;;8.38;3.10;;;;;;;;;;5028311;28;20851;-85
2021/08/23 14:26:29;;;;;;;5.10;2.60;;;;;;;;;;5027061;28;20385;-79
2021/08/23 14:28:55;;;;;;;3.40;2.67;;;;;;;;;;5009280;28;20465;-81
2021/08/23 14:31:21;;;;;;;5.10;2.50;;;;;;;;;;5027515;28;20510;-84
2021/08/23 14:33:47;;;;;;;4.22;2.53;;;;;;;;;;5009089;28;20424;-83